Time,TemperatureF,DewpointF,PressureIn,WindDirection,WindDirectionDegrees,WindSpeedMPH,WindSpeedGustMPH,Humidity,HourlyPrecipIn,Conditions,Clouds,dailyrainin,SoftwareType,DateUTC
2013-07-13 00:01:00,61.3,59.6,30.19,WSW,257,0.0,0.0,94,0.00,,,0.00,WeatherCatV1.15B25,2013-07-13 04:01:00,
2013-07-13 00:02:00,61.2,59.5,30.19,WSW,256,0.0,0.0,94,0.00,,,0.00,WeatherCatV1.15B25,2013-07-13 04:02:00,
2013-07-13 00:05:00,61.2,59.5,30.19,WSW,257,0.0,0.0,94,0.00,,,0.00,WeatherCatV1.15B25,2013-07-13 04:05:00,
2013-07-13 00:07:00,61.2,59.5,30.19,WSW,257,0.0,0.0,94,0.00,,,0.00,WeatherCatV1.15B25,2013-07-13 04:07:00,
2013-07-13 00:09:00,61.1,59.4,30.19,WSW,257,0.0,0.0,94,0.00,,,0.00,WeatherCatV1.15B25,2013-07-13 04:09:00,
2013-07-13 00:14:00,61.1,59.4,30.20,WSW,257,0.0,0.0,94,0.00,,,0.00,WeatherCatV1.15B25,2013-07-13 04:14:00,
2013-07-13 00:19:00,61.0,59.3,30.20,WSW,257,0.0,0.0,94,0.00,,,0.00,WeatherCatV1.15B25,2013-07-13 04:19:00,
2013-07-13 00:24:00,60.9,59.2,30.20,WSW,256,0.0,0.0,94,0.00,,,0.00,WeatherCatV1.15B25,2013-07-13 04:24:00,
2013-07-13 00:29:00,60.8,59.1,30.20,WSW,256,0.0,0.0,94,0.00,,,0.00,WeatherCatV1.15B25,2013-07-13 04:29:00,
2013-07-13 00:34:00,60.7,59.0,30.20,WSW,257,0.0,0.0,94,0.00,,,0.00,WeatherCatV1.15B25,2013-07-13 04:34:00,
2013-07-13 00:39:00,60.6,58.9,30.21,WSW,257,0.0,0.0,94,0.00,,,0.00,WeatherCatV1.15B25,2013-07-13 04:39:00,
2013-07-13 00:44:00,60.4,58.7,30.21,WSW,256,0.0,0.0,94,0.00,,,0.00,WeatherCatV1.15B25,2013-07-13 04:44:00,
2013-07-13 00:49:00,60.4,58.7,30.21,WSW,256,0.0,0.0,94,0.00,,,0.00,WeatherCatV1.15B25,2013-07-13 04:49:00,
2013-07-13 00:54:00,60.3,58.6,30.21,WSW,257,0.0,0.0,94,0.00,,,0.00,WeatherCatV1.15B25,2013-07-13 04:54:00,
2013-07-13 00:59:00,60.2,58.5,30.22,WSW,257,0.0,0.0,94,0.00,,,0.00,WeatherCatV1.15B25,2013-07-13 04:59:00,
2013-07-13 01:04:00,60.0,58.3,30.21,WSW,256,0.0,0.0,94,0.00,,,0.00,WeatherCatV1.15B25,2013-07-13 05:04:00,
2013-07-13 01:10:00,59.8,58.1,30.22,WSW,257,0.0,0.0,94,0.00,,,0.00,WeatherCatV1.15B25,2013-07-13 05:10:00,
2013-07-13 01:15:00,59.7,58.0,30.22,WSW,257,0.0,0.0,94,0.00,,,0.00,WeatherCatV1.15B25,2013-07-13 05:15:00,
2013-07-13 01:20:00,59.5,57.8,30.22,WSW,257,0.0,0.0,94,0.00,,,0.00,WeatherCatV1.15B25,2013-07-13 05:20:00,
2013-07-13 01:25:00,59.4,57.7,30.22,WSW,257,0.0,0.0,94,0.00,,,0.00,WeatherCatV1.15B25,2013-07-13 05:25:00,
2013-07-13 01:30:00,59.2,57.5,30.22,WSW,257,0.0,0.0,94,0.00,,,0.00,WeatherCatV1.15B25,2013-07-13 05:30:00,
2013-07-13 01:35:00,59.0,57.3,30.22,WSW,257,0.0,0.0,94,0.00,,,0.00,WeatherCatV1.15B25,2013-07-13 05:35:00,
2013-07-13 01:40:00,59.0,57.3,30.22,WSW,256,0.0,0.0,94,0.00,,,0.00,WeatherCatV1.15B25,2013-07-13 05:40:00,
2013-07-13 01:45:00,59.0,57.6,30.22,WSW,256,0.0,0.0,95,0.00,,,0.00,WeatherCatV1.15B25,2013-07-13 05:45:00,
2013-07-13 01:50:00,58.9,57.5,30.22,WSW,256,0.0,0.0,95,0.00,,,0.00,WeatherCatV1.15B25,2013-07-13 05:50:00,
2013-07-13 01:55:00,58.7,57.0,30.23,WSW,257,0.0,0.0,94,0.00,,,0.00,WeatherCatV1.15B25,2013-07-13 05:55:00,
2013-07-13 02:00:00,58.6,56.9,30.23,WSW,257,0.0,0.0,94,0.00,,,0.00,WeatherCatV1.15B25,2013-07-13 06:00:00,
2013-07-13 02:05:00,58.4,57.0,30.23,WSW,256,0.0,0.0,95,0.00,,,0.00,WeatherCatV1.15B25,2013-07-13 06:05:00,
2013-07-13 02:10:00,58.3,56.9,30.22,WSW,257,0.0,0.0,95,0.00,,,0.00,WeatherCatV1.15B25,2013-07-13 06:10:00,
2013-07-13 02:15:00,58.2,56.8,30.22,WSW,256,0.0,0.0,95,0.00,,,0.00,WeatherCatV1.15B25,2013-07-13 06:15:00,
2013-07-13 02:20:00,58.1,56.4,30.23,WSW,256,0.0,0.0,94,0.00,,,0.00,WeatherCatV1.15B25,2013-07-13 06:20:00,
2013-07-13 02:25:00,58.0,56.3,30.23,WSW,257,0.0,0.0,94,0.00,,,0.00,WeatherCatV1.15B25,2013-07-13 06:25:00,
2013-07-13 02:30:00,57.8,56.4,30.23,WSW,257,0.0,0.0,95,0.00,,,0.00,WeatherCatV1.15B25,2013-07-13 06:30:00,
2013-07-13 02:35:00,57.8,56.4,30.23,WSW,256,0.0,0.0,95,0.00,,,0.00,WeatherCatV1.15B25,2013-07-13 06:35:00,
2013-07-13 02:41:00,57.7,56.3,30.23,WSW,257,0.0,0.0,95,0.00,,,0.00,WeatherCatV1.15B25,2013-07-13 06:41:00,
2013-07-13 02:46:00,57.6,56.2,30.23,WSW,257,0.0,0.0,95,0.00,,,0.00,WeatherCatV1.15B25,2013-07-13 06:46:00,
2013-07-13 02:51:00,57.5,56.1,30.23,WSW,257,0.0,0.0,95,0.00,,,0.00,WeatherCatV1.15B25,2013-07-13 06:51:00,
2013-07-13 02:56:00,57.4,56.0,30.23,WSW,256,0.0,0.0,95,0.00,,,0.00,WeatherCatV1.15B25,2013-07-13 06:56:00,
2013-07-13 03:01:00,57.4,56.0,30.23,WSW,256,0.0,0.0,95,0.00,,,0.00,WeatherCatV1.15B25,2013-07-13 07:01:00,
2013-07-13 03:06:00,57.4,56.0,30.23,WSW,257,0.0,0.0,95,0.00,,,0.00,WeatherCatV1.15B25,2013-07-13 07:06:00,
2013-07-13 03:11:00,57.3,55.9,30.23,WSW,257,0.0,0.0,95,0.00,,,0.00,WeatherCatV1.15B25,2013-07-13 07:11:00,
2013-07-13 03:16:00,57.2,55.8,30.24,WSW,257,0.0,0.0,95,0.00,,,0.00,WeatherCatV1.15B25,2013-07-13 07:16:00,
2013-07-13 03:21:00,57.1,55.7,30.24,WSW,256,0.0,0.0,95,0.00,,,0.00,WeatherCatV1.15B25,2013-07-13 07:21:00,
2013-07-13 03:26:00,57.0,55.6,30.24,WSW,256,0.0,0.0,95,0.00,,,0.00,WeatherCatV1.15B25,2013-07-13 07:26:00,
2013-07-13 03:31:00,57.0,55.6,30.24,WSW,257,0.0,0.0,95,0.00,,,0.00,WeatherCatV1.15B25,2013-07-13 07:31:00,
2013-07-13 03:36:00,56.9,55.5,30.24,WSW,256,0.0,0.0,95,0.00,,,0.00,WeatherCatV1.15B25,2013-07-13 07:36:00,
2013-07-13 03:41:00,56.9,55.5,30.24,WSW,256,0.0,0.0,95,0.00,,,0.00,WeatherCatV1.15B25,2013-07-13 07:41:00,
2013-07-13 03:46:00,56.8,55.4,30.24,WSW,257,0.0,0.0,95,0.00,,,0.00,WeatherCatV1.15B25,2013-07-13 07:46:00,
2013-07-13 03:51:00,56.8,55.4,30.24,WSW,257,0.0,0.0,95,0.00,,,0.00,WeatherCatV1.15B25,2013-07-13 07:51:00,
2013-07-13 03:56:00,56.7,55.3,30.24,WSW,256,0.0,0.0,95,0.00,,,0.00,WeatherCatV1.15B25,2013-07-13 07:56:00,
2013-07-13 04:01:00,56.7,55.3,30.25,WSW,256,0.0,0.0,95,0.00,,,0.00,WeatherCatV1.15B25,2013-07-13 08:01:00,
2013-07-13 04:06:00,56.7,55.3,30.24,WSW,257,0.0,0.0,95,0.00,,,0.00,WeatherCatV1.15B25,2013-07-13 08:06:00,
2013-07-13 04:11:00,56.6,55.2,30.24,WSW,256,0.0,0.0,95,0.00,,,0.00,WeatherCatV1.15B25,2013-07-13 08:11:00,
2013-07-13 04:16:00,56.5,55.1,30.24,WSW,257,0.0,0.0,95,0.00,,,0.00,WeatherCatV1.15B25,2013-07-13 08:16:00,
2013-07-13 04:21:00,56.6,55.2,30.24,WSW,257,0.0,0.0,95,0.00,,,0.00,WeatherCatV1.15B25,2013-07-13 08:21:00,
2013-07-13 04:26:00,56.7,55.3,30.24,WSW,257,0.0,0.0,95,0.00,,,0.00,WeatherCatV1.15B25,2013-07-13 08:26:00,
2013-07-13 04:31:00,56.7,55.6,30.24,WSW,256,0.0,0.0,96,0.00,,,0.00,WeatherCatV1.15B25,2013-07-13 08:31:00,
2013-07-13 04:36:00,56.8,55.4,30.24,WSW,257,0.0,0.0,95,0.00,,,0.00,WeatherCatV1.15B25,2013-07-13 08:36:00,
2013-07-13 04:41:00,56.8,55.4,30.24,WSW,257,0.0,0.0,95,0.00,,,0.00,WeatherCatV1.15B25,2013-07-13 08:41:00,
2013-07-13 04:46:00,56.7,55.6,30.24,WSW,256,0.0,0.0,96,0.00,,,0.00,WeatherCatV1.15B25,2013-07-13 08:46:00,
2013-07-13 04:51:00,56.7,55.6,30.24,WSW,256,0.0,0.0,96,0.00,,,0.00,WeatherCatV1.15B25,2013-07-13 08:51:00,
2013-07-13 04:56:00,56.7,55.6,30.24,WSW,257,0.0,0.0,96,0.00,,,0.00,WeatherCatV1.15B25,2013-07-13 08:56:00,
2013-07-13 05:01:00,56.6,55.5,30.25,WSW,257,0.0,0.0,96,0.00,,,0.00,WeatherCatV1.15B25,2013-07-13 09:01:00,
2013-07-13 05:06:00,56.6,55.5,30.25,WSW,257,0.0,0.0,96,0.00,,,0.00,WeatherCatV1.15B25,2013-07-13 09:06:00,
2013-07-13 05:11:00,56.5,55.1,30.25,WSW,256,0.0,0.0,95,0.00,,,0.00,WeatherCatV1.15B25,2013-07-13 09:11:00,
2013-07-13 05:16:00,56.5,55.1,30.25,WSW,257,0.0,0.0,95,0.00,,,0.00,WeatherCatV1.15B25,2013-07-13 09:16:00,
2013-07-13 05:21:00,56.5,55.1,30.25,WSW,256,0.0,0.0,95,0.00,,,0.00,WeatherCatV1.15B25,2013-07-13 09:21:00,
2013-07-13 05:26:00,56.4,55.3,30.25,WSW,257,0.0,0.0,96,0.00,,,0.00,WeatherCatV1.15B25,2013-07-13 09:26:00,
2013-07-13 05:31:00,56.4,55.3,30.25,WSW,256,0.0,0.0,96,0.00,,,0.00,WeatherCatV1.15B25,2013-07-13 09:31:00,
2013-07-13 05:36:00,56.4,55.3,30.25,WSW,257,0.0,0.0,96,0.00,,,0.00,WeatherCatV1.15B25,2013-07-13 09:36:00,
2013-07-13 05:42:00,56.3,55.2,30.25,WSW,257,0.0,0.0,96,0.00,,,0.00,WeatherCatV1.15B25,2013-07-13 09:42:00,
2013-07-13 05:47:00,56.3,55.2,30.25,WSW,257,0.0,0.0,96,0.00,,,0.00,WeatherCatV1.15B25,2013-07-13 09:47:00,
2013-07-13 05:52:00,56.2,55.1,30.25,WSW,256,0.0,0.0,96,0.00,,,0.00,WeatherCatV1.15B25,2013-07-13 09:52:00,
2013-07-13 05:57:00,56.3,55.2,30.26,WSW,257,0.0,0.0,96,0.00,,,0.00,WeatherCatV1.15B25,2013-07-13 09:57:00,
2013-07-13 06:03:00,56.4,55.3,30.27,WSW,257,0.0,0.0,96,0.00,,,0.00,WeatherCatV1.15B25,2013-07-13 10:03:00,
2013-07-13 06:08:00,56.5,55.4,30.27,WSW,256,0.0,0.0,96,0.00,,,0.00,WeatherCatV1.15B25,2013-07-13 10:08:00,
2013-07-13 06:13:00,56.5,55.4,30.27,WSW,256,0.0,0.0,96,0.00,,,0.00,WeatherCatV1.15B25,2013-07-13 10:13:00,
2013-07-13 06:18:00,56.5,55.4,30.27,WSW,257,0.0,0.0,96,0.00,,,0.00,WeatherCatV1.15B25,2013-07-13 10:18:00,
2013-07-13 06:23:00,56.5,55.4,30.27,WSW,257,0.0,0.0,96,0.00,,,0.00,WeatherCatV1.15B25,2013-07-13 10:23:00,
2013-07-13 06:28:00,56.5,55.4,30.27,WSW,257,0.0,0.0,96,0.00,,,0.00,WeatherCatV1.15B25,2013-07-13 10:28:00,
2013-07-13 06:33:00,56.4,55.3,30.27,WSW,256,0.0,0.0,96,0.00,,,0.00,WeatherCatV1.15B25,2013-07-13 10:33:00,
2013-07-13 06:38:00,56.5,55.4,30.27,WSW,257,0.0,0.0,96,0.00,,,0.00,WeatherCatV1.15B25,2013-07-13 10:38:00,
2013-07-13 06:43:00,56.5,55.4,30.27,WSW,257,0.0,0.0,96,0.00,,,0.00,WeatherCatV1.15B25,2013-07-13 10:43:00,
2013-07-13 06:48:00,56.6,55.5,30.27,WSW,256,0.0,0.0,96,0.00,,,0.00,WeatherCatV1.15B25,2013-07-13 10:48:00,
2013-07-13 06:53:00,56.9,55.8,30.27,WSW,257,0.0,0.0,96,0.00,,,0.00,WeatherCatV1.15B25,2013-07-13 10:53:00,
2013-07-13 06:58:00,57.1,56.0,30.26,WSW,257,0.0,0.0,96,0.00,,,0.00,WeatherCatV1.15B25,2013-07-13 10:58:00,
2013-07-13 07:03:00,57.3,56.2,30.27,WSW,257,0.0,0.0,96,0.00,,,0.00,WeatherCatV1.15B25,2013-07-13 11:03:00,
2013-07-13 07:08:00,57.6,56.5,30.27,WSW,256,0.0,0.0,96,0.00,,,0.00,WeatherCatV1.15B25,2013-07-13 11:08:00,
2013-07-13 07:13:00,58.1,57.0,30.27,WSW,257,0.0,0.0,96,0.00,,,0.00,WeatherCatV1.15B25,2013-07-13 11:13:00,
2013-07-13 07:19:00,59.0,58.1,30.27,WSW,257,0.0,0.0,97,0.00,,,0.00,WeatherCatV1.15B25,2013-07-13 11:19:00,
2013-07-13 07:24:00,59.1,58.2,30.27,WSW,257,0.0,0.0,97,0.00,,,0.00,WeatherCatV1.15B25,2013-07-13 11:24:00,
2013-07-13 07:29:00,59.6,58.7,30.27,WSW,257,0.0,0.0,97,0.00,,,0.00,WeatherCatV1.15B25,2013-07-13 11:29:00,
2013-07-13 07:34:00,60.0,59.1,30.27,WSW,257,0.0,0.0,97,0.00,,,0.00,WeatherCatV1.15B25,2013-07-13 11:34:00,
2013-07-13 07:39:00,60.4,59.5,30.27,WSW,257,0.0,0.0,97,0.00,,,0.00,WeatherCatV1.15B25,2013-07-13 11:39:00,
2013-07-13 07:44:00,60.9,60.0,30.27,WSW,257,0.0,0.0,97,0.00,,,0.00,WeatherCatV1.15B25,2013-07-13 11:44:00,
2013-07-13 07:49:00,61.2,60.3,30.27,WSW,256,0.0,0.0,97,0.00,,,0.00,WeatherCatV1.15B25,2013-07-13 11:49:00,
2013-07-13 07:54:00,61.6,60.7,30.27,WSW,256,0.0,0.0,97,0.00,,,0.00,WeatherCatV1.15B25,2013-07-13 11:54:00,
2013-07-13 07:59:00,61.9,61.0,30.28,WSW,257,0.0,0.0,97,0.00,,,0.00,WeatherCatV1.15B25,2013-07-13 11:59:00,
2013-07-13 08:04:00,62.0,61.1,30.28,WSW,257,0.0,0.0,97,0.00,,,0.00,WeatherCatV1.15B25,2013-07-13 12:04:00,
2013-07-13 08:09:00,62.2,61.3,30.29,WSW,257,0.0,0.0,97,0.00,,,0.00,WeatherCatV1.15B25,2013-07-13 12:09:00,
2013-07-13 08:14:00,62.2,61.3,30.28,WSW,257,0.0,0.0,97,0.00,,,0.00,WeatherCatV1.15B25,2013-07-13 12:14:00,
2013-07-13 08:19:00,62.4,61.5,30.28,WSW,257,0.0,0.0,97,0.00,,,0.00,WeatherCatV1.15B25,2013-07-13 12:19:00,
2013-07-13 08:24:00,62.6,61.7,30.28,WSW,256,0.0,0.0,97,0.00,,,0.00,WeatherCatV1.15B25,2013-07-13 12:24:00,
2013-07-13 08:29:00,62.7,61.8,30.28,WSW,256,0.0,0.0,97,0.00,,,0.00,WeatherCatV1.15B25,2013-07-13 12:29:00,
2013-07-13 08:34:00,62.9,61.7,30.29,WSW,256,0.0,0.0,96,0.00,,,0.00,WeatherCatV1.15B25,2013-07-13 12:34:00,
2013-07-13 08:39:00,63.3,62.4,30.29,WSW,257,0.0,0.0,97,0.00,,,0.00,WeatherCatV1.15B25,2013-07-13 12:39:00,
2013-07-13 08:44:00,63.7,62.5,30.29,WSW,256,0.0,0.0,96,0.00,,,0.00,WeatherCatV1.15B25,2013-07-13 12:44:00,
2013-07-13 08:49:00,64.1,62.9,30.29,WSW,250,0.0,0.0,96,0.00,,,0.00,WeatherCatV1.15B25,2013-07-13 12:49:00,
2013-07-13 08:54:00,64.4,63.2,30.29,WSW,251,0.0,1.0,96,0.00,,,0.00,WeatherCatV1.15B25,2013-07-13 12:54:00,
2013-07-13 08:59:00,64.7,63.5,30.29,WSW,250,1.0,1.0,96,0.00,,,0.00,WeatherCatV1.15B25,2013-07-13 12:59:00,
2013-07-13 09:04:00,64.9,63.4,30.30,WSW,253,0.0,0.0,95,0.00,,,0.00,WeatherCatV1.15B25,2013-07-13 13:04:00,
2013-07-13 09:09:00,65.3,63.8,30.30,WSW,253,0.0,1.0,95,0.00,,,0.00,WeatherCatV1.15B25,2013-07-13 13:09:00,
2013-07-13 09:14:00,65.8,64.3,30.29,WSW,253,0.0,1.0,95,0.00,,,0.00,WeatherCatV1.15B25,2013-07-13 13:14:00,
2013-07-13 09:19:00,66.1,64.6,30.29,West,275,0.0,0.0,95,0.00,,,0.00,WeatherCatV1.15B25,2013-07-13 13:19:00,
2013-07-13 09:24:00,66.5,64.7,30.29,West,281,0.0,0.0,94,0.00,,,0.00,WeatherCatV1.15B25,2013-07-13 13:24:00,
2013-07-13 09:29:00,66.7,64.3,30.29,WNW,294,1.0,2.0,92,0.00,,,0.00,WeatherCatV1.15B25,2013-07-13 13:29:00,
2013-07-13 09:34:00,67.2,63.5,30.29,WNW,294,0.0,1.0,88,0.00,,,0.00,WeatherCatV1.15B25,2013-07-13 13:34:00,
2013-07-13 09:39:00,67.8,62.8,30.29,WNW,303,0.0,1.0,84,0.00,,,0.00,WeatherCatV1.15B25,2013-07-13 13:39:00,
2013-07-13 09:44:00,68.5,62.4,30.29,NW,304,0.0,1.0,81,0.00,,,0.00,WeatherCatV1.15B25,2013-07-13 13:44:00,
2013-07-13 09:49:00,69.4,62.2,30.29,WSW,238,1.0,1.0,78,0.00,,,0.00,WeatherCatV1.15B25,2013-07-13 13:49:00,
2013-07-13 09:54:00,70.3,62.4,30.28,WSW,241,1.0,1.0,76,0.00,,,0.00,WeatherCatV1.15B25,2013-07-13 13:54:00,
2013-07-13 10:00:00,71.2,62.1,30.29,WSW,242,0.0,1.0,73,0.00,,,0.00,WeatherCatV1.15B25,2013-07-13 14:00:00,
2013-07-13 10:05:00,72.2,63.4,30.28,WSW,242,0.0,0.0,74,0.00,,,0.00,WeatherCatV1.15B25,2013-07-13 14:05:00,
2013-07-13 10:10:00,73.1,63.9,30.29,WSW,254,1.0,2.0,73,0.00,,,0.00,WeatherCatV1.15B25,2013-07-13 14:10:00,
2013-07-13 10:15:00,74.1,62.0,30.28,WSW,242,0.0,0.0,66,0.00,,,0.00,WeatherCatV1.15B25,2013-07-13 14:15:00,
2013-07-13 10:20:00,75.1,62.5,30.28,SSW,194,0.0,0.0,65,0.00,,,0.00,WeatherCatV1.15B25,2013-07-13 14:20:00,
2013-07-13 10:25:00,75.7,63.9,30.28,WSW,254,0.0,3.0,67,0.00,,,0.00,WeatherCatV1.15B25,2013-07-13 14:25:00,
2013-07-13 10:30:00,76.1,63.0,30.28,NE,46,0.0,1.0,64,0.00,,,0.00,WeatherCatV1.15B25,2013-07-13 14:30:00,
2013-07-13 10:35:00,76.2,62.2,30.29,WNW,288,0.0,5.0,62,0.00,,,0.00,WeatherCatV1.15B25,2013-07-13 14:35:00,
2013-07-13 10:40:00,76.1,62.6,30.28,WNW,287,1.0,1.0,63,0.00,,,0.00,WeatherCatV1.15B25,2013-07-13 14:40:00,
2013-07-13 10:45:00,76.0,62.5,30.28,WNW,288,0.0,1.0,63,0.00,,,0.00,WeatherCatV1.15B25,2013-07-13 14:45:00,
2013-07-13 10:50:00,75.9,61.9,30.28,NW,321,0.0,1.0,62,0.00,,,0.00,WeatherCatV1.15B25,2013-07-13 14:50:00,
2013-07-13 10:55:00,75.8,61.8,30.28,NW,313,0.0,1.0,62,0.00,,,0.00,WeatherCatV1.15B25,2013-07-13 14:55:00,
2013-07-13 11:00:00,75.8,62.3,30.29,NW,317,0.0,1.0,63,0.00,,,0.00,WeatherCatV1.15B25,2013-07-13 15:00:00,
2013-07-13 11:05:00,75.9,61.9,30.28,NW,315,1.0,1.0,62,0.00,,,0.00,WeatherCatV1.15B25,2013-07-13 15:05:00,
2013-07-13 11:10:00,75.9,61.9,30.28,SE,126,1.0,1.0,62,0.00,,,0.00,WeatherCatV1.15B25,2013-07-13 15:10:00,
2013-07-13 11:15:00,75.9,61.9,30.28,ESE,117,0.0,1.0,62,0.00,,,0.00,WeatherCatV1.15B25,2013-07-13 15:15:00,
2013-07-13 11:20:00,75.9,59.1,30.28,SW,220,0.0,1.0,56,0.00,,,0.00,WeatherCatV1.15B25,2013-07-13 15:20:00,
2013-07-13 11:25:00,76.0,61.6,30.28,SW,221,0.0,1.0,61,0.00,,,0.00,WeatherCatV1.15B25,2013-07-13 15:25:00,
2013-07-13 11:30:00,76.0,60.1,30.28,South,182,1.0,2.0,58,0.00,,,0.00,WeatherCatV1.15B25,2013-07-13 15:30:00,
2013-07-13 11:35:00,76.2,60.3,30.28,SW,236,0.0,1.0,58,0.00,,,0.00,WeatherCatV1.15B25,2013-07-13 15:35:00,
2013-07-13 11:40:00,76.4,58.5,30.28,WSW,238,1.0,3.0,54,0.00,,,0.00,WeatherCatV1.15B25,2013-07-13 15:40:00,
2013-07-13 11:46:00,77.1,60.2,30.28,WSW,240,0.0,2.0,56,0.00,,,0.00,WeatherCatV1.15B25,2013-07-13 15:46:00,
2013-07-13 11:51:00,77.5,61.0,30.28,WSW,240,0.0,0.0,57,0.00,,,0.00,WeatherCatV1.15B25,2013-07-13 15:51:00,
2013-07-13 11:56:00,77.4,62.4,30.27,WSW,258,0.0,1.0,60,0.00,,,0.00,WeatherCatV1.15B25,2013-07-13 15:56:00,
2013-07-13 12:01:00,77.3,62.8,30.28,WSW,256,0.0,1.0,61,0.00,,,0.00,WeatherCatV1.15B25,2013-07-13 16:01:00,
2013-07-13 12:06:00,77.9,64.3,30.27,West,261,0.0,0.0,63,0.00,,,0.00,WeatherCatV1.15B25,2013-07-13 16:06:00,
2013-07-13 12:11:00,78.2,61.2,30.28,WSW,257,0.0,3.0,56,0.00,,,0.00,WeatherCatV1.15B25,2013-07-13 16:11:00,
2013-07-13 12:16:00,78.5,62.5,30.28,West,276,1.0,2.0,58,0.00,,,0.00,WeatherCatV1.15B25,2013-07-13 16:16:00,
2013-07-13 12:21:00,78.7,63.6,30.28,WNW,283,0.0,0.0,60,0.00,,,0.00,WeatherCatV1.15B25,2013-07-13 16:21:00,
2013-07-13 12:26:00,78.8,63.7,30.28,WNW,284,0.0,1.0,60,0.00,,,0.00,WeatherCatV1.15B25,2013-07-13 16:26:00,
2013-07-13 12:31:00,78.8,61.2,30.27,WNW,283,0.0,2.0,55,0.00,,,0.00,WeatherCatV1.15B25,2013-07-13 16:31:00,
2013-07-13 12:36:00,78.7,62.7,30.27,NW,316,0.0,0.0,58,0.00,,,0.00,WeatherCatV1.15B25,2013-07-13 16:36:00,
2013-07-13 12:41:00,78.2,62.7,30.27,NW,316,0.0,1.0,59,0.00,,,0.00,WeatherCatV1.15B25,2013-07-13 16:41:00,
2013-07-13 12:46:00,77.8,65.1,30.27,NW,316,0.0,1.0,65,0.00,,,0.00,WeatherCatV1.15B25,2013-07-13 16:46:00,
2013-07-13 12:51:00,77.8,65.1,30.27,NW,321,0.0,0.0,65,0.00,,,0.00,WeatherCatV1.15B25,2013-07-13 16:51:00,
2013-07-13 12:56:00,78.1,63.1,30.27,NW,321,0.0,1.0,60,0.00,,,0.00,WeatherCatV1.15B25,2013-07-13 16:56:00,
2013-07-13 13:01:00,78.2,64.6,30.27,NW,321,0.0,0.0,63,0.00,,,0.00,WeatherCatV1.15B25,2013-07-13 17:01:00,
2013-07-13 13:06:00,78.7,63.1,30.27,WNW,288,0.0,4.0,59,0.00,,,0.00,WeatherCatV1.15B25,2013-07-13 17:06:00,
2013-07-13 13:11:00,79.3,61.7,30.26,West,280,0.0,0.0,55,0.00,,,0.00,WeatherCatV1.15B25,2013-07-13 17:11:00,
2013-07-13 13:16:00,80.3,67.9,30.26,West,280,0.0,1.0,66,0.00,,,0.00,WeatherCatV1.15B25,2013-07-13 17:16:00,
2013-07-13 13:21:00,80.6,63.4,30.26,NE,51,0.0,2.0,56,0.00,,,0.00,WeatherCatV1.15B25,2013-07-13 17:21:00,
2013-07-13 13:26:00,80.5,64.8,30.26,NE,51,1.0,1.0,59,0.00,,,0.00,WeatherCatV1.15B25,2013-07-13 17:26:00,
2013-07-13 13:31:00,80.1,61.9,30.26,NE,51,0.0,0.0,54,0.00,,,0.00,WeatherCatV1.15B25,2013-07-13 17:31:00,
2013-07-13 13:36:00,80.4,63.2,30.26,ENE,57,0.0,1.0,56,0.00,,,0.00,WeatherCatV1.15B25,2013-07-13 17:36:00,
2013-07-13 13:41:00,80.6,62.9,30.25,NW,315,0.0,2.0,55,0.00,,,0.00,WeatherCatV1.15B25,2013-07-13 17:41:00,
2013-07-13 13:46:00,80.6,63.4,30.25,NNW,329,0.0,0.0,56,0.00,,,0.00,WeatherCatV1.15B25,2013-07-13 17:46:00,
2013-07-13 13:51:00,80.1,64.0,30.26,NNW,329,0.0,0.0,58,0.00,,,0.00,WeatherCatV1.15B25,2013-07-13 17:51:00,
2013-07-13 13:56:00,79.6,64.5,30.26,NNW,329,0.0,1.0,60,0.00,,,0.00,WeatherCatV1.15B25,2013-07-13 17:56:00,
2013-07-13 14:01:00,79.0,63.9,30.26,NNW,329,0.0,0.0,60,0.00,,,0.00,WeatherCatV1.15B25,2013-07-13 18:01:00,
2013-07-13 14:06:00,78.3,62.3,30.26,NNW,330,0.0,2.0,58,0.00,,,0.00,WeatherCatV1.15B25,2013-07-13 18:06:00,
2013-07-13 14:11:00,78.1,64.5,30.26,NNW,330,0.0,1.0,63,0.00,,,0.00,WeatherCatV1.15B25,2013-07-13 18:11:00,
2013-07-13 14:16:00,77.9,66.0,30.26,NNW,330,0.0,1.0,67,0.00,,,0.00,WeatherCatV1.15B25,2013-07-13 18:16:00,
2013-07-13 14:21:00,77.8,65.1,30.26,NNW,330,0.0,1.0,65,0.00,,,0.00,WeatherCatV1.15B25,2013-07-13 18:21:00,
2013-07-13 14:26:00,77.6,65.3,30.26,NNE,14,0.0,1.0,66,0.00,,,0.00,WeatherCatV1.15B25,2013-07-13 18:26:00,
2013-07-13 14:31:00,77.5,65.7,30.26,NNE,14,0.0,1.0,67,0.00,,,0.00,WeatherCatV1.15B25,2013-07-13 18:31:00,
2013-07-13 14:36:00,77.5,65.7,30.26,NNE,14,0.0,0.0,67,0.00,,,0.00,WeatherCatV1.15B25,2013-07-13 18:36:00,
2013-07-13 14:41:00,77.5,65.7,30.26,NNE,14,0.0,0.0,67,0.00,,,0.00,WeatherCatV1.15B25,2013-07-13 18:41:00,
2013-07-13 14:46:00,77.6,64.0,30.26,NW,323,1.0,1.0,63,0.00,,,0.00,WeatherCatV1.15B25,2013-07-13 18:46:00,
2013-07-13 14:51:00,78.1,66.2,30.26,NNW,331,0.0,0.0,67,0.00,,,0.00,WeatherCatV1.15B25,2013-07-13 18:51:00,
2013-07-13 14:56:00,78.5,63.9,30.26,West,262,0.0,4.0,61,0.00,,,0.00,WeatherCatV1.15B25,2013-07-13 18:56:00,
2013-07-13 15:01:00,78.7,62.7,30.26,ENE,62,2.0,3.0,58,0.00,,,0.00,WeatherCatV1.15B25,2013-07-13 19:01:00,
2013-07-13 15:06:00,78.7,65.0,30.26,NE,52,0.0,3.0,63,0.00,,,0.00,WeatherCatV1.15B25,2013-07-13 19:06:00,
2013-07-13 15:11:00,78.7,65.0,30.26,NE,52,1.0,1.0,63,0.00,,,0.00,WeatherCatV1.15B25,2013-07-13 19:11:00,
2013-07-13 15:16:00,79.2,62.6,30.26,WSW,238,0.0,1.0,57,0.00,,,0.00,WeatherCatV1.15B25,2013-07-13 19:16:00,
2013-07-13 15:21:00,79.2,62.6,30.26,West,261,0.0,0.0,57,0.00,,,0.00,WeatherCatV1.15B25,2013-07-13 19:21:00,
2013-07-13 15:26:00,78.8,65.1,30.26,West,262,0.0,1.0,63,0.00,,,0.00,WeatherCatV1.15B25,2013-07-13 19:26:00,
2013-07-13 15:31:00,78.2,65.0,30.26,West,262,0.0,1.0,64,0.00,,,0.00,WeatherCatV1.15B25,2013-07-13 19:31:00,
2013-07-13 15:36:00,77.8,64.6,30.26,WSW,255,0.0,1.0,64,0.00,,,0.00,WeatherCatV1.15B25,2013-07-13 19:36:00,
2013-07-13 15:41:00,78.2,65.9,30.26,NNW,327,0.0,3.0,66,0.00,,,0.00,WeatherCatV1.15B25,2013-07-13 19:41:00,
2013-07-13 15:46:00,78.7,65.9,30.25,NNW,329,0.0,2.0,65,0.00,,,0.00,WeatherCatV1.15B25,2013-07-13 19:46:00,
2013-07-13 15:51:00,78.9,67.4,30.25,West,267,1.0,2.0,68,0.00,,,0.00,WeatherCatV1.15B25,2013-07-13 19:51:00,
2013-07-13 15:57:00,79.3,68.2,30.25,West,269,0.0,0.0,69,0.00,,,0.00,WeatherCatV1.15B25,2013-07-13 19:57:00,
2013-07-13 16:02:00,79.4,68.3,30.25,West,259,0.0,0.0,69,0.00,,,0.00,WeatherCatV1.15B25,2013-07-13 20:02:00,
2013-07-13 16:07:00,79.2,65.9,30.25,West,264,0.0,0.0,64,0.00,,,0.00,WeatherCatV1.15B25,2013-07-13 20:07:00,
2013-07-13 16:12:00,79.0,66.6,30.25,West,264,0.0,0.0,66,0.00,,,0.00,WeatherCatV1.15B25,2013-07-13 20:12:00,
2013-07-13 16:17:00,78.6,67.1,30.25,WSW,252,1.0,1.0,68,0.00,,,0.00,WeatherCatV1.15B25,2013-07-13 20:17:00,
2013-07-13 16:22:00,77.9,67.3,30.26,WSW,252,0.0,2.0,70,0.00,,,0.00,WeatherCatV1.15B25,2013-07-13 20:22:00,
2013-07-13 16:27:00,77.1,65.3,30.26,WSW,257,1.0,1.0,67,0.00,,,0.00,WeatherCatV1.15B25,2013-07-13 20:27:00,
2013-07-13 16:32:00,76.8,66.7,30.26,South,186,3.0,3.0,71,0.00,,,0.00,WeatherCatV1.15B25,2013-07-13 20:32:00,
2013-07-13 16:37:00,76.9,67.2,30.25,SSW,197,0.0,0.0,72,0.00,,,0.00,WeatherCatV1.15B25,2013-07-13 20:37:00,
2013-07-13 16:42:00,76.8,66.3,30.25,SW,226,0.0,2.0,70,0.00,,,0.00,WeatherCatV1.15B25,2013-07-13 20:42:00,
2013-07-13 16:47:00,76.6,67.7,30.26,SW,224,0.0,0.0,74,0.00,,,0.00,WeatherCatV1.15B25,2013-07-13 20:47:00,
2013-07-13 16:52:00,76.2,64.8,30.26,SW,221,0.0,0.0,68,0.00,,,0.00,WeatherCatV1.15B25,2013-07-13 20:52:00,
2013-07-13 16:57:00,75.8,66.1,30.26,SW,221,0.0,0.0,72,0.00,,,0.00,WeatherCatV1.15B25,2013-07-13 20:57:00,
2013-07-13 17:02:00,75.5,66.2,30.25,SW,223,0.0,1.0,73,0.00,,,0.00,WeatherCatV1.15B25,2013-07-13 21:02:00,
2013-07-13 17:07:00,75.5,67.0,30.25,SW,224,0.0,0.0,75,0.00,,,0.00,WeatherCatV1.15B25,2013-07-13 21:07:00,
2013-07-13 17:12:00,75.4,64.9,30.25,SW,223,0.0,0.0,70,0.00,,,0.00,WeatherCatV1.15B25,2013-07-13 21:12:00,
2013-07-13 17:17:00,75.7,65.6,30.25,SW,222,0.0,0.0,71,0.00,,,0.00,WeatherCatV1.15B25,2013-07-13 21:17:00,
2013-07-13 17:22:00,76.2,66.1,30.25,West,261,0.0,2.0,71,0.00,,,0.00,WeatherCatV1.15B25,2013-07-13 21:22:00,
2013-07-13 17:27:00,76.8,67.1,30.25,West,261,0.0,1.0,72,0.00,,,0.00,WeatherCatV1.15B25,2013-07-13 21:27:00,
2013-07-13 17:32:00,77.3,66.7,30.25,West,261,1.0,2.0,70,0.00,,,0.00,WeatherCatV1.15B25,2013-07-13 21:32:00,
2013-07-13 17:37:00,77.5,65.7,30.25,West,264,0.0,2.0,67,0.00,,,0.00,WeatherCatV1.15B25,2013-07-13 21:37:00,
2013-07-13 17:42:00,77.4,66.4,30.25,West,264,0.0,1.0,69,0.00,,,0.00,WeatherCatV1.15B25,2013-07-13 21:42:00,
2013-07-13 17:47:00,77.2,67.5,30.25,West,264,1.0,1.0,72,0.00,,,0.00,WeatherCatV1.15B25,2013-07-13 21:47:00,
2013-07-13 17:52:00,77.1,67.8,30.24,WNW,286,0.0,0.0,73,0.00,,,0.00,WeatherCatV1.15B25,2013-07-13 21:52:00,
2013-07-13 17:57:00,77.3,68.3,30.24,WNW,290,0.0,1.0,74,0.00,,,0.00,WeatherCatV1.15B25,2013-07-13 21:57:00,
2013-07-13 18:02:00,77.3,68.0,30.24,WNW,292,0.0,0.0,73,0.00,,,0.00,WeatherCatV1.15B25,2013-07-13 22:02:00,
2013-07-13 18:07:00,77.0,67.3,30.24,WNW,292,0.0,1.0,72,0.00,,,0.00,WeatherCatV1.15B25,2013-07-13 22:07:00,
2013-07-13 18:12:00,77.1,67.4,30.24,SSE,167,0.0,1.0,72,0.00,,,0.00,WeatherCatV1.15B25,2013-07-13 22:12:00,
2013-07-13 18:17:00,77.2,67.0,30.24,South,178,0.0,1.0,71,0.00,,,0.00,WeatherCatV1.15B25,2013-07-13 22:17:00,
2013-07-13 18:22:00,77.0,67.3,30.24,South,178,0.0,0.0,72,0.00,,,0.00,WeatherCatV1.15B25,2013-07-13 22:22:00,
2013-07-13 18:27:00,76.8,67.9,30.24,South,178,0.0,0.0,74,0.00,,,0.00,WeatherCatV1.15B25,2013-07-13 22:27:00,
2013-07-13 18:32:00,76.3,67.8,30.25,South,178,0.0,0.0,75,0.00,,,0.00,WeatherCatV1.15B25,2013-07-13 22:32:00,
2013-07-13 18:37:00,75.7,67.2,30.25,South,188,0.0,0.0,75,0.00,,,0.00,WeatherCatV1.15B25,2013-07-13 22:37:00,
2013-07-13 18:42:00,75.0,67.3,30.25,South,190,0.0,0.0,77,0.00,,,0.00,WeatherCatV1.15B25,2013-07-13 22:42:00,
2013-07-13 18:47:00,74.4,67.1,30.25,South,190,0.0,0.0,78,0.00,,,0.00,WeatherCatV1.15B25,2013-07-13 22:47:00,
2013-07-13 18:52:00,73.8,67.2,30.25,South,190,0.0,0.0,80,0.00,,,0.00,WeatherCatV1.15B25,2013-07-13 22:52:00,
2013-07-13 18:57:00,73.4,67.2,30.25,South,190,0.0,0.0,81,0.00,,,0.00,WeatherCatV1.15B25,2013-07-13 22:57:00,
2013-07-13 19:02:00,73.1,67.3,30.25,South,190,0.0,0.0,82,0.00,,,0.00,WeatherCatV1.15B25,2013-07-13 23:02:00,
2013-07-13 19:07:00,72.8,67.0,30.25,South,190,0.0,0.0,82,0.00,,,0.00,WeatherCatV1.15B25,2013-07-13 23:07:00,
2013-07-13 19:12:00,72.7,66.9,30.25,South,190,0.0,0.0,82,0.00,,,0.00,WeatherCatV1.15B25,2013-07-13 23:12:00,
2013-07-13 19:17:00,72.5,67.0,30.25,South,190,0.0,0.0,83,0.00,,,0.00,WeatherCatV1.15B25,2013-07-13 23:17:00,
2013-07-13 19:23:00,72.3,66.8,30.25,South,190,0.0,0.0,83,0.00,,,0.00,WeatherCatV1.15B25,2013-07-13 23:23:00,
2013-07-13 19:28:00,72.1,66.6,30.25,South,190,0.0,0.0,83,0.00,,,0.00,WeatherCatV1.15B25,2013-07-13 23:28:00,
2013-07-13 19:33:00,72.0,66.5,30.26,South,190,0.0,0.0,83,0.00,,,0.00,WeatherCatV1.15B25,2013-07-13 23:33:00,
2013-07-13 19:39:00,71.8,66.3,30.26,South,190,0.0,0.0,83,0.00,,,0.00,WeatherCatV1.15B25,2013-07-13 23:39:00,
2013-07-13 19:44:00,71.7,66.6,30.26,South,190,0.0,0.0,84,0.00,,,0.00,WeatherCatV1.15B25,2013-07-13 23:44:00,
2013-07-13 19:49:00,71.6,66.5,30.25,South,190,0.0,0.0,84,0.00,,,0.00,WeatherCatV1.15B25,2013-07-13 23:49:00,
2013-07-13 19:54:00,71.5,66.4,30.26,South,190,0.0,0.0,84,0.00,,,0.00,WeatherCatV1.15B25,2013-07-13 23:54:00,
2013-07-13 20:00:00,71.3,66.2,30.25,South,176,0.0,0.0,84,0.00,,,0.00,WeatherCatV1.15B25,2013-07-14 00:00:00,
2013-07-13 20:05:00,71.2,66.4,30.25,South,176,0.0,0.0,85,0.00,,,0.00,WeatherCatV1.15B25,2013-07-14 00:05:00,
2013-07-13 20:11:00,71.0,66.3,30.25,South,176,0.0,0.0,85,0.00,,,0.00,WeatherCatV1.15B25,2013-07-14 00:11:00,
2013-07-13 20:16:00,70.8,66.1,30.25,South,176,0.0,0.0,85,0.00,,,0.00,WeatherCatV1.15B25,2013-07-14 00:16:00,
2013-07-13 20:21:00,70.6,65.9,30.26,South,176,0.0,0.0,85,0.00,,,0.00,WeatherCatV1.15B25,2013-07-14 00:21:00,
2013-07-13 20:26:00,70.4,65.7,30.26,South,176,0.0,0.0,85,0.00,,,0.00,WeatherCatV1.15B25,2013-07-14 00:26:00,
2013-07-13 20:31:00,70.2,65.8,30.26,South,176,0.0,0.0,86,0.00,,,0.00,WeatherCatV1.15B25,2013-07-14 00:31:00,
2013-07-13 20:36:00,70.0,65.6,30.26,South,176,0.0,0.0,86,0.00,,,0.00,WeatherCatV1.15B25,2013-07-14 00:36:00,
2013-07-13 20:41:00,69.7,65.6,30.26,South,176,0.0,0.0,87,0.00,,,0.00,WeatherCatV1.15B25,2013-07-14 00:41:00,
2013-07-13 20:46:00,69.5,65.5,30.26,South,176,0.0,0.0,87,0.00,,,0.00,WeatherCatV1.15B25,2013-07-14 00:46:00,
2013-07-13 20:51:00,69.2,65.5,30.26,South,176,0.0,0.0,88,0.00,,,0.00,WeatherCatV1.15B25,2013-07-14 00:51:00,
2013-07-13 20:56:00,69.0,65.6,30.26,South,176,0.0,0.0,89,0.00,,,0.00,WeatherCatV1.15B25,2013-07-14 00:56:00,
2013-07-13 21:01:00,68.7,65.3,30.25,South,176,0.0,0.0,89,0.00,,,0.00,WeatherCatV1.15B25,2013-07-14 01:01:00,
2013-07-13 21:06:00,68.5,65.1,30.26,South,176,0.0,0.0,89,0.00,,,0.00,WeatherCatV1.15B25,2013-07-14 01:06:00,
2013-07-13 21:12:00,68.2,64.8,30.26,South,176,0.0,0.0,89,0.00,,,0.00,WeatherCatV1.15B25,2013-07-14 01:12:00,
2013-07-13 21:17:00,68.0,64.6,30.26,South,176,0.0,0.0,89,0.00,,,0.00,WeatherCatV1.15B25,2013-07-14 01:17:00,
2013-07-13 21:22:00,67.7,64.7,30.26,South,176,0.0,0.0,90,0.00,,,0.00,WeatherCatV1.15B25,2013-07-14 01:22:00,
2013-07-13 21:27:00,67.5,64.5,30.27,South,176,0.0,0.0,90,0.00,,,0.00,WeatherCatV1.15B25,2013-07-14 01:27:00,
2013-07-13 21:32:00,67.2,64.2,30.26,South,176,0.0,0.0,90,0.00,,,0.00,WeatherCatV1.15B25,2013-07-14 01:32:00,
2013-07-13 21:38:00,66.9,63.9,30.27,South,176,0.0,0.0,90,0.00,,,0.00,WeatherCatV1.15B25,2013-07-14 01:38:00,
2013-07-13 21:43:00,66.7,63.7,30.27,South,176,0.0,0.0,90,0.00,,,0.00,WeatherCatV1.15B25,2013-07-14 01:43:00,
2013-07-13 21:49:00,66.5,63.8,30.26,South,176,0.0,0.0,91,0.00,,,0.00,WeatherCatV1.15B25,2013-07-14 01:49:00,
2013-07-13 21:54:00,66.2,63.5,30.27,South,176,0.0,0.0,91,0.00,,,0.00,WeatherCatV1.15B25,2013-07-14 01:54:00,
2013-07-13 21:59:00,65.9,63.2,30.27,South,176,0.0,0.0,91,0.00,,,0.00,WeatherCatV1.15B25,2013-07-14 01:59:00,
2013-07-13 22:04:00,65.7,63.0,30.26,South,176,0.0,0.0,91,0.00,,,0.00,WeatherCatV1.15B25,2013-07-14 02:04:00,
2013-07-13 22:09:00,65.4,63.0,30.26,South,176,0.0,0.0,92,0.00,,,0.00,WeatherCatV1.15B25,2013-07-14 02:09:00,
2013-07-13 22:14:00,65.3,62.9,30.26,South,176,0.0,0.0,92,0.00,,,0.00,WeatherCatV1.15B25,2013-07-14 02:14:00,
2013-07-13 22:19:00,65.1,62.7,30.26,South,176,0.0,0.0,92,0.00,,,0.00,WeatherCatV1.15B25,2013-07-14 02:19:00,
2013-07-13 22:24:00,64.9,62.5,30.26,South,176,0.0,0.0,92,0.00,,,0.00,WeatherCatV1.15B25,2013-07-14 02:24:00,
2013-07-13 22:29:00,64.7,62.3,30.26,South,176,0.0,0.0,92,0.00,,,0.00,WeatherCatV1.15B25,2013-07-14 02:29:00,
2013-07-13 22:34:00,64.5,62.1,30.26,South,176,0.0,0.0,92,0.00,,,0.00,WeatherCatV1.15B25,2013-07-14 02:34:00,
2013-07-13 22:39:00,64.4,62.0,30.26,South,176,0.0,0.0,92,0.00,,,0.00,WeatherCatV1.15B25,2013-07-14 02:39:00,
2013-07-13 22:44:00,64.3,61.9,30.26,South,176,0.0,0.0,92,0.00,,,0.00,WeatherCatV1.15B25,2013-07-14 02:44:00,
2013-07-13 22:50:00,64.1,62.0,30.26,South,176,0.0,0.0,93,0.00,,,0.00,WeatherCatV1.15B25,2013-07-14 02:50:00,
2013-07-13 22:55:00,64.0,61.9,30.26,South,176,0.0,0.0,93,0.00,,,0.00,WeatherCatV1.15B25,2013-07-14 02:55:00,
2013-07-13 23:00:00,63.8,61.7,30.26,South,176,0.0,0.0,93,0.00,,,0.00,WeatherCatV1.15B25,2013-07-14 03:00:00,
2013-07-13 23:06:00,63.7,61.6,30.26,South,176,0.0,0.0,93,0.00,,,0.00,WeatherCatV1.15B25,2013-07-14 03:06:00,
2013-07-13 23:11:00,63.6,61.5,30.27,South,176,0.0,0.0,93,0.00,,,0.00,WeatherCatV1.15B25,2013-07-14 03:11:00,
2013-07-13 23:16:00,63.5,61.4,30.27,South,176,0.0,0.0,93,0.00,,,0.00,WeatherCatV1.15B25,2013-07-14 03:16:00,
2013-07-13 23:21:00,63.4,61.3,30.26,South,176,0.0,0.0,93,0.00,,,0.00,WeatherCatV1.15B25,2013-07-14 03:21:00,
2013-07-13 23:26:00,63.2,61.4,30.26,South,176,0.0,0.0,94,0.00,,,0.00,WeatherCatV1.15B25,2013-07-14 03:26:00,
2013-07-13 23:31:00,63.2,61.1,30.26,South,176,0.0,0.0,93,0.00,,,0.00,WeatherCatV1.15B25,2013-07-14 03:31:00,
2013-07-13 23:36:00,63.1,61.3,30.26,South,176,0.0,0.0,94,0.00,,,0.00,WeatherCatV1.15B25,2013-07-14 03:36:00,
2013-07-13 23:41:00,63.0,61.2,30.26,South,176,0.0,0.0,94,0.00,,,0.00,WeatherCatV1.15B25,2013-07-14 03:41:00,
2013-07-13 23:46:00,62.9,61.1,30.26,South,176,0.0,0.0,94,0.00,,,0.00,WeatherCatV1.15B25,2013-07-14 03:46:00,
2013-07-13 23:51:00,62.9,61.1,30.26,South,176,0.0,0.0,94,0.00,,,0.00,WeatherCatV1.15B25,2013-07-14 03:51:00,
2013-07-13 23:56:00,62.8,61.0,30.26,South,176,0.0,0.0,94,0.00,,,0.00,WeatherCatV1.15B25,2013-07-14 03:56:00,